createdAt,value
2023-05-05T04:00:37.849Z,80.09
2023-05-05T04:04:42.092Z,80.56
2023-05-05T04:08:44.826Z,80.37
2023-05-05T04:12:47.521Z,80.20
2023-05-05T04:16:50.146Z,79.84
2023-05-05T04:20:54.151Z,79.12
2023-05-05T04:24:57.364Z,79.11
2023-05-05T04:29:00.228Z,78.21
2023-05-05T04:33:03.257Z,77.81
2023-05-05T04:37:07.457Z,77.35
2023-05-05T04:41:10.276Z,76.50
2023-05-05T04:45:14.709Z,76.32
2023-05-05T04:49:17.352Z,75.96
2023-05-05T04:53:21.375Z,75.76
2023-05-05T04:57:24.013Z,75.67
2023-05-05T05:01:26.930Z,74.79
2023-05-05T05:05:29.631Z,74.67
2023-05-05T05:09:33.926Z,74.75
2023-05-05T05:13:36.582Z,75.88
2023-05-05T05:17:39.183Z,75.73
2023-05-05T05:21:41.795Z,75.52
2023-05-05T05:25:46.230Z,74.44
2023-05-05T05:29:51.290Z,72.73
2023-05-05T05:33:53.986Z,72.49
2023-05-05T05:37:56.830Z,72.23
2023-05-05T05:42:02.722Z,71.35
2023-05-05T05:46:07.607Z,70.87
2023-05-05T05:50:12.387Z,70.34
2023-05-05T05:54:14.998Z,69.07
2023-05-05T05:58:19.769Z,69.44
2023-05-05T06:02:23.041Z,69.47
2023-05-05T06:06:26.168Z,69.54
2023-05-05T06:10:28.860Z,68.20
2023-05-05T06:14:43.256Z,69.56
2023-05-05T06:18:46.046Z,69.43
2023-05-05T06:22:49.751Z,69.11
2023-05-05T06:26:52.717Z,68.14
2023-05-05T06:30:56.997Z,68.06
2023-05-05T06:34:59.503Z,67.20
2023-05-05T06:39:02.057Z,66.10
2023-05-05T06:43:04.642Z,65.15
2023-05-05T06:47:13.277Z,64.81
2023-05-05T06:51:16.121Z,63.36
2023-05-05T06:55:19.338Z,62.39
2023-05-05T06:59:21.905Z,59.13
2023-05-05T07:03:25.991Z,58.65
2023-05-05T07:07:28.538Z,58.88
2023-05-05T07:11:31.075Z,58.29
2023-05-05T07:15:33.648Z,58.92
2023-05-05T07:19:37.693Z,57.79
2023-05-05T07:23:40.563Z,55.76
2023-05-05T07:27:43.257Z,54.85
2023-05-05T07:31:45.918Z,54.44
2023-05-05T07:35:49.791Z,53.99
2023-05-05T07:39:52.324Z,53.64
2023-05-05T07:43:54.864Z,54.86
2023-05-05T07:47:57.536Z,55.41
2023-05-05T07:52:01.727Z,55.95
2023-05-05T07:56:04.736Z,53.42
2023-05-05T08:00:09.304Z,52.69
2023-05-05T08:04:15.321Z,50.84
2023-05-05T08:08:19.317Z,49.34
2023-05-05T08:12:21.861Z,47.74
2023-05-05T08:16:24.441Z,45.31
2023-05-05T08:20:29.953Z,44.99
2023-05-05T08:24:33.924Z,44.55
2023-05-05T08:28:37.533Z,43.17
2023-05-05T08:32:40.220Z,44.12
2023-05-05T08:36:42.813Z,42.73
2023-05-05T08:40:46.909Z,42.55
2023-05-05T08:44:49.436Z,43.70
2023-05-05T08:48:56.459Z,43.49
2023-05-05T08:53:09.017Z,42.00
2023-05-05T08:57:16.951Z,43.23
2023-05-05T09:01:20.031Z,42.25
2023-05-05T09:05:22.662Z,41.28
2023-05-05T09:09:25.406Z,40.94
2023-05-05T09:13:31.297Z,40.67
2023-05-05T09:17:33.860Z,39.49
2023-05-05T09:21:39.109Z,39.12
2023-05-05T09:25:42.577Z,39.47
2023-05-05T09:29:51.123Z,38.16
2023-05-05T09:33:53.808Z,38.04
2023-05-05T09:37:56.343Z,39.26
2023-05-05T09:41:59.396Z,40.52
2023-05-05T09:46:09.469Z,41.54
2023-05-05T09:50:15.823Z,41.61
2023-05-05T09:54:26.055Z,40.96
2023-05-05T09:58:30.064Z,41.98
2023-05-05T10:02:36.376Z,43.74
2023-05-05T10:06:47.091Z,43.46
2023-05-05T10:10:54.617Z,43.23
2023-05-05T10:14:57.884Z,43.22
2023-05-05T10:19:04.233Z,43.50
2023-05-05T10:23:09.189Z,43.65
2023-05-05T10:27:16.332Z,43.96
2023-05-05T10:31:26.916Z,43.71
2023-05-05T10:35:34.011Z,42.49
2023-05-05T10:39:37.553Z,41.58
2023-05-05T10:43:41.668Z,39.69
2023-05-05T10:47:45.099Z,40.15
2023-05-05T10:51:59.946Z,39.97
2023-05-05T10:56:09.814Z,38.91
2023-05-05T11:00:52.454Z,40.63
2023-05-05T11:05:10.250Z,40.23
2023-05-05T11:09:29.629Z,41.48
2023-05-05T11:13:32.263Z,44.71
2023-05-05T11:17:45.736Z,46.32
2023-05-05T11:22:01.799Z,47.36
2023-05-05T11:26:05.921Z,49.30
2023-05-05T11:30:10.021Z,50.69
2023-05-05T11:34:29.122Z,50.50
2023-05-05T11:38:43.718Z,52.29
2023-05-05T11:42:47.693Z,53.66
2023-05-05T11:47:34.742Z,56.04
2023-05-05T11:51:37.753Z,51.14
2023-05-05T11:55:40.132Z,50.28
2023-05-05T11:59:53.831Z,50.64
2023-05-05T12:03:56.683Z,46.33
2023-05-05T12:07:59.603Z,46.02
2023-05-05T12:12:02.638Z,44.72
2023-05-05T12:16:12.981Z,43.64
2023-05-05T12:20:15.624Z,43.55
2023-05-05T12:24:18.681Z,42.63
2023-05-05T12:28:21.212Z,42.04
2023-05-05T12:32:27.940Z,42.68
2023-05-05T12:36:31.071Z,42.75
2023-05-05T12:40:48.011Z,42.08
2023-05-05T12:44:50.612Z,43.08
2023-05-05T12:49:05.516Z,43.11
2023-05-05T12:53:08.125Z,42.47
2023-05-05T12:57:12.390Z,43.25
2023-05-05T13:01:15.003Z,42.53
2023-05-05T13:05:30.593Z,43.14
2023-05-05T13:09:33.924Z,43.32
2023-05-05T13:13:37.312Z,43.72
2023-05-05T13:17:39.895Z,42.85
2023-05-05T13:21:43.937Z,42.68
2023-05-05T13:25:46.614Z,41.48
2023-05-05T13:29:49.206Z,42.31
2023-05-05T13:33:51.837Z,42.89
2023-05-05T13:37:55.710Z,41.87
2023-05-05T13:41:58.294Z,44.61
2023-05-05T13:46:12.193Z,44.19
2023-05-05T13:50:21.670Z,44.70
2023-05-05T13:54:25.998Z,43.03
2023-05-05T13:58:28.691Z,42.76
2023-05-05T14:02:31.607Z,42.23
2023-05-05T14:06:35.542Z,42.71
2023-05-05T14:10:40.341Z,43.00
2023-05-05T14:14:42.856Z,44.40
2023-05-05T14:18:45.611Z,44.38
2023-05-05T14:22:49.375Z,46.68
2023-05-05T14:26:53.381Z,47.25
2023-05-05T14:30:56.108Z,48.18
2023-05-05T14:34:58.940Z,47.23
2023-05-05T14:39:01.370Z,48.96
2023-05-05T14:43:05.233Z,49.55
2023-05-05T14:47:07.855Z,49.43
2023-05-05T14:51:10.523Z,48.99
2023-05-05T14:55:13.118Z,50.09
2023-05-05T14:59:16.991Z,50.56
2023-05-05T15:03:19.667Z,53.13
2023-05-05T15:07:22.735Z,53.17
2023-05-05T15:11:25.333Z,54.25
2023-05-05T15:15:29.239Z,57.53
2023-05-05T15:19:31.840Z,57.47
2023-05-05T15:23:34.751Z,59.14
2023-05-05T15:27:37.946Z,60.09
2023-05-05T15:31:42.451Z,60.61
2023-05-05T15:35:44.972Z,61.20
2023-05-05T15:39:47.518Z,61.68
2023-05-05T15:43:50.093Z,62.30
2023-05-05T15:47:54.076Z,61.96
2023-05-05T15:51:57.073Z,61.48
2023-05-05T15:55:59.582Z,61.13
2023-05-05T16:00:02.254Z,60.53
2023-05-05T16:04:11.286Z,60.31
2023-05-05T16:08:13.812Z,61.43
2023-05-05T16:12:16.385Z,61.96
2023-05-05T16:16:19.152Z,63.08
2023-05-05T16:20:23.016Z,64.48
2023-05-05T16:24:25.637Z,65.58
2023-05-05T16:28:28.195Z,71.86
2023-05-05T16:32:30.747Z,75.25
2023-05-05T16:36:34.802Z,76.13
2023-05-05T16:40:37.774Z,77.54
2023-05-05T16:44:40.417Z,77.47
2023-05-05T16:48:42.963Z,78.07
2023-05-05T16:52:46.840Z,79.24
2023-05-05T16:56:49.348Z,82.21
2023-05-05T17:00:52.777Z,82.05
2023-05-05T17:04:55.308Z,82.10
2023-05-05T17:08:59.159Z,83.12
2023-05-05T17:13:01.747Z,82.43
2023-05-05T17:17:04.371Z,81.21
2023-05-05T17:21:07.402Z,79.61
2023-05-05T17:25:11.734Z,77.26
2023-05-05T17:29:15.168Z,78.71
2023-05-05T17:33:21.222Z,79.24
2023-05-05T17:37:23.747Z,78.78
2023-05-05T17:41:27.615Z,78.55
2023-05-05T17:45:30.623Z,78.93
2023-05-05T17:49:33.155Z,79.85
2023-05-05T17:53:35.669Z,80.10
2023-05-05T17:57:39.625Z,81.99
2023-05-05T18:01:42.248Z,83.46
2023-05-05T18:05:44.794Z,83.69
2023-05-05T18:09:47.386Z,83.50
2023-05-05T18:13:51.280Z,84.14
2023-05-05T18:17:54.238Z,83.94
2023-05-05T18:21:57.395Z,83.64
2023-05-05T18:25:59.957Z,83.25
2023-05-05T18:30:05.256Z,82.53
2023-05-05T18:34:07.898Z,82.39
2023-05-05T18:38:10.445Z,82.61
2023-05-05T18:42:13.808Z,82.81
2023-05-05T18:46:17.748Z,82.87
2023-05-05T18:50:20.392Z,82.94
2023-05-05T18:54:23.038Z,82.58
2023-05-05T18:58:25.777Z,82.78
2023-05-05T19:02:29.669Z,83.01
2023-05-05T19:06:32.356Z,82.85
2023-05-05T19:10:35.067Z,82.87
2023-05-05T19:14:37.598Z,82.89
2023-05-05T19:18:41.510Z,82.99
2023-05-05T19:22:44.152Z,83.27
2023-05-05T19:26:46.723Z,83.05
2023-05-05T19:30:49.299Z,82.98
2023-05-05T19:34:54.163Z,83.03
2023-05-05T19:38:56.769Z,82.80
2023-05-05T19:42:59.305Z,83.21
2023-05-05T19:47:01.880Z,82.57
2023-05-05T19:51:06.032Z,84.02
2023-05-05T19:55:10.277Z,84.94
2023-05-05T19:59:12.926Z,84.56
2023-05-05T20:03:15.572Z,84.38
2023-05-05T20:07:19.486Z,85.30
2023-05-05T20:11:22.521Z,85.24
2023-05-05T20:15:25.122Z,85.28
2023-05-05T20:19:27.771Z,85.13
2023-05-05T20:23:31.691Z,85.33
2023-05-05T20:27:35.924Z,85.32
2023-05-05T20:31:38.754Z,85.21
2023-05-05T20:35:41.306Z,84.93
2023-05-05T20:39:47.200Z,82.77
2023-05-05T20:43:49.843Z,82.65
2023-05-05T20:47:52.850Z,84.82
2023-05-05T20:51:55.813Z,88.83
2023-05-05T20:55:59.690Z,91.06
2023-05-05T21:00:02.194Z,92.25
